createdAt,value
2022-12-25T00:00:56.440Z,46.53
2022-12-25T00:03:25.207Z,51.00
2022-12-25T00:05:56.856Z,45.97
2022-12-25T00:08:32.353Z,49.97
2022-12-25T00:13:53.299Z,52.43
2022-12-25T00:16:31.913Z,48.17
2022-12-25T00:19:01.868Z,50.57
2022-12-25T00:21:29.423Z,52.47
2022-12-25T00:23:58.644Z,50.17
2022-12-25T00:26:27.214Z,52.93
2022-12-25T00:31:40.713Z,52.40
2022-12-25T00:34:08.115Z,51.77
2022-12-25T00:36:41.478Z,54.67
2022-12-25T00:39:10.830Z,51.83
2022-12-25T00:41:56.796Z,52.57
2022-12-25T00:44:24.192Z,48.00
2022-12-25T00:46:52.891Z,56.27
2022-12-25T00:49:22.992Z,51.27
2022-12-25T00:51:54.139Z,54.80
2022-12-25T00:54:21.545Z,50.93
2022-12-25T00:56:49.918Z,54.77
2022-12-25T00:59:17.427Z,54.87
2022-12-25T01:01:46.942Z,52.23
2022-12-25T01:04:16.285Z,52.40
2022-12-25T01:06:44.679Z,55.10
2022-12-25T01:09:33.257Z,54.43
2022-12-25T01:12:00.553Z,54.60
2022-12-25T01:14:29.094Z,56.13
2022-12-25T01:16:56.475Z,53.83
2022-12-25T01:19:25.172Z,54.83
2022-12-25T01:21:54.756Z,49.03
2022-12-25T01:24:22.041Z,51.87
2022-12-25T01:26:49.775Z,50.73
2022-12-25T01:29:17.240Z,48.83
2022-12-25T01:31:44.723Z,53.87
2022-12-25T01:34:12.061Z,47.87
2022-12-25T01:36:39.388Z,49.93
2022-12-25T01:39:06.987Z,46.37
2022-12-25T01:41:34.265Z,48.07
2022-12-25T01:44:03.873Z,46.37
2022-12-25T01:46:31.308Z,43.70
2022-12-25T01:49:06.033Z,46.00
2022-12-25T01:51:37.376Z,46.37
2022-12-25T01:54:06.512Z,42.57
2022-12-25T01:56:34.845Z,46.00
2022-12-25T01:59:03.578Z,43.83
2022-12-25T02:01:31.069Z,40.33
2022-12-25T02:04:03.283Z,44.13
2022-12-25T02:06:32.199Z,41.27
2022-12-25T02:09:05.118Z,40.80
2022-12-25T02:11:52.323Z,42.47
2022-12-25T02:14:24.220Z,40.53
2022-12-25T02:16:57.839Z,42.60
2022-12-25T02:19:35.554Z,42.70
2022-12-25T02:22:09.216Z,41.57
2022-12-25T08:06:08.441Z,60.47
2022-12-25T08:08:36.650Z,57.97
2022-12-25T08:11:04.517Z,63.17
2022-12-25T08:13:32.334Z,68.17
2022-12-25T08:16:00.721Z,64.47
2022-12-25T08:18:30.262Z,61.93
2022-12-25T08:21:02.666Z,62.33
2022-12-25T08:23:30.206Z,60.77
2022-12-25T08:26:04.926Z,59.17
2022-12-25T08:28:33.435Z,61.07
2022-12-25T08:31:00.826Z,62.50
2022-12-25T08:33:28.187Z,61.87
2022-12-25T08:35:56.404Z,58.17
2022-12-25T08:38:23.722Z,62.07
2022-12-25T08:40:51.030Z,60.30
2022-12-25T08:43:18.301Z,60.27
2022-12-25T08:45:47.445Z,58.23
2022-12-25T08:48:14.790Z,58.20
2022-12-25T08:50:46.603Z,58.53
2022-12-25T08:53:14.483Z,56.40
2022-12-25T08:55:42.254Z,59.93
2022-12-25T08:58:09.945Z,59.03
2022-12-25T09:00:37.744Z,58.80
2022-12-25T09:03:05.458Z,58.47
2022-12-25T09:05:35.718Z,57.57
2022-12-25T09:08:03.070Z,54.77
2022-12-25T09:10:30.476Z,59.20
2022-12-25T09:12:57.862Z,61.03
2022-12-25T09:15:25.208Z,63.03
2022-12-25T09:17:52.499Z,61.87
2022-12-25T09:20:19.905Z,56.03
2022-12-25T09:22:47.288Z,57.27
2022-12-25T09:25:14.612Z,59.47
2022-12-25T09:27:43.656Z,57.83
2022-12-25T09:30:11.212Z,60.47
2022-12-25T09:32:40.384Z,53.30
2022-12-25T09:35:08.808Z,58.67
2022-12-25T09:37:36.410Z,56.53
2022-12-25T09:40:04.672Z,52.17
2022-12-25T09:42:34.465Z,56.37
2022-12-25T09:45:04.007Z,52.13
2022-12-25T09:47:33.035Z,51.00
2022-12-25T09:50:03.160Z,48.73
2022-12-25T09:52:39.722Z,47.13
2022-12-25T09:55:26.568Z,41.20
2022-12-25T09:57:57.738Z,41.00
2022-12-25T10:00:26.515Z,38.77
2022-12-25T10:02:54.135Z,41.37
2022-12-25T10:05:30.454Z,40.67
2022-12-25T10:08:16.757Z,38.17
2022-12-25T10:10:56.077Z,44.83
2022-12-25T10:13:35.624Z,40.13
2022-12-25T10:16:21.764Z,37.25
2022-12-25T10:18:59.861Z,39.70
2022-12-25T10:21:28.159Z,38.40
2022-12-25T10:24:21.603Z,39.10
2022-12-25T10:26:50.606Z,35.67
2022-12-25T10:29:22.152Z,36.23
2022-12-25T10:31:50.857Z,37.90
2022-12-25T10:34:18.353Z,33.03
2022-12-25T10:36:46.457Z,37.37
2022-12-25T10:39:20.992Z,36.37
2022-12-25T10:42:04.218Z,35.63
2022-12-25T10:44:32.353Z,33.97
2022-12-25T10:47:01.935Z,32.17
2022-12-25T10:49:31.555Z,33.17
2022-12-25T10:51:59.028Z,30.77
2022-12-25T10:54:27.632Z,32.33
2022-12-25T10:56:54.838Z,34.47
2022-12-25T10:59:22.245Z,33.00
2022-12-25T11:01:53.657Z,38.00
2022-12-25T11:04:25.508Z,36.50
2022-12-25T11:07:21.986Z,36.90
2022-12-25T11:09:50.641Z,37.67
2022-12-25T11:12:20.036Z,40.73
2022-12-25T11:14:58.237Z,36.53
2022-12-25T11:17:27.177Z,45.87
2022-12-25T11:20:01.813Z,42.87
2022-12-25T11:22:29.479Z,42.37
2022-12-25T11:24:56.731Z,43.53
2022-12-25T11:27:28.155Z,41.03
2022-12-25T11:30:05.190Z,43.37
2022-12-25T11:32:42.570Z,45.27
2022-12-25T11:35:18.853Z,47.00
2022-12-25T11:37:48.550Z,50.00
2022-12-25T11:40:18.325Z,44.33
2022-12-25T11:42:50.880Z,47.60
2022-12-25T11:45:18.212Z,46.87
2022-12-25T11:48:18.005Z,45.60
2022-12-25T11:50:51.429Z,49.60
2022-12-25T11:53:38.434Z,45.70
2022-12-25T11:56:10.281Z,51.20
2022-12-25T11:58:43.152Z,47.00
2022-12-25T12:01:28.557Z,48.00
2022-12-25T12:03:56.149Z,53.33
2022-12-25T12:06:42.264Z,49.97
2022-12-25T12:09:18.376Z,48.20
2022-12-25T12:11:50.628Z,47.17
2022-12-25T12:14:25.510Z,52.50
2022-12-25T12:16:52.906Z,46.60
2022-12-25T12:19:27.452Z,49.53
2022-12-25T12:21:59.572Z,46.67
2022-12-25T12:24:30.317Z,48.67
2022-12-25T12:27:14.342Z,50.80
2022-12-25T12:29:43.883Z,48.23
2022-12-25T12:32:37.664Z,50.40
2022-12-25T12:35:10.439Z,47.40
2022-12-25T12:37:38.721Z,43.80
2022-12-25T12:40:06.857Z,45.90
2022-12-25T12:42:40.357Z,44.60
2022-12-25T12:45:09.556Z,45.20
2022-12-25T12:47:41.967Z,45.83
2022-12-25T12:50:27.259Z,49.70
2022-12-25T12:52:54.733Z,46.50
2022-12-25T12:55:32.532Z,45.33
2022-12-25T12:58:04.202Z,45.07
2022-12-25T13:00:37.597Z,44.37
2022-12-25T13:03:07.855Z,42.80
2022-12-25T13:05:41.359Z,44.27
2022-12-25T13:08:24.158Z,45.87
2022-12-25T13:10:53.424Z,44.27
2022-12-25T13:13:25.303Z,45.13
2022-12-25T13:15:52.913Z,45.20
2022-12-25T13:18:20.840Z,44.17
2022-12-25T13:20:54.790Z,46.73
2022-12-25T13:23:29.653Z,44.13
2022-12-25T13:26:11.791Z,44.03
2022-12-25T13:28:39.173Z,47.10
2022-12-25T13:31:16.250Z,48.47
2022-12-25T13:34:02.368Z,49.77
2022-12-25T13:36:31.065Z,45.53
2022-12-25T13:38:59.762Z,44.67
2022-12-25T13:41:48.426Z,47.20
2022-12-25T13:44:19.456Z,45.87
2022-12-25T13:46:47.229Z,42.33
2022-12-25T13:49:16.024Z,47.47
2022-12-25T13:51:43.419Z,47.20
2022-12-25T13:54:12.707Z,45.93
2022-12-25T13:56:46.853Z,49.33
2022-12-25T13:59:18.825Z,44.83
2022-12-25T14:01:47.162Z,45.60
2022-12-25T14:04:19.403Z,48.50
2022-12-25T14:06:46.846Z,48.13
2022-12-25T14:09:14.662Z,49.07
2022-12-25T14:11:45.708Z,50.93
2022-12-25T14:14:20.346Z,51.13
2022-12-25T14:16:49.416Z,48.47
2022-12-25T14:19:33.093Z,50.47
2022-12-25T14:22:05.706Z,54.80
2022-12-25T14:24:34.856Z,57.60
2022-12-25T14:27:07.224Z,51.83
2022-12-25T14:29:43.757Z,58.43
2022-12-25T14:32:15.960Z,64.10
2022-12-25T14:34:46.148Z,58.83
2022-12-25T14:37:17.318Z,55.07
2022-12-25T14:39:48.032Z,54.90
2022-12-25T14:42:22.900Z,52.73
2022-12-25T14:45:00.475Z,55.33
2022-12-25T14:47:32.440Z,59.23
2022-12-25T14:50:00.176Z,58.87
2022-12-25T14:52:30.398Z,54.23
2022-12-25T14:55:00.098Z,57.30
2022-12-25T14:57:29.116Z,58.97
2022-12-25T14:59:59.962Z,62.90
2022-12-25T15:02:27.777Z,58.70
2022-12-25T15:04:55.207Z,56.13
2022-12-25T15:07:26.092Z,58.77
2022-12-25T15:10:18.499Z,64.07
2022-12-25T15:12:43.113Z,63.13
2022-12-25T15:15:10.678Z,61.20
2022-12-25T15:17:38.208Z,62.13
2022-12-25T15:20:06.476Z,63.90
2022-12-25T15:22:54.277Z,66.23
2022-12-25T15:25:21.920Z,68.40
2022-12-25T15:27:49.543Z,73.20
2022-12-25T15:30:16.938Z,65.97
2022-12-25T15:32:44.387Z,63.13
2022-12-25T15:35:16.997Z,75.83
2022-12-25T15:37:44.409Z,75.13
2022-12-25T15:40:17.672Z,73.83
2022-12-25T15:42:45.510Z,74.97
2022-12-25T15:45:19.656Z,84.23
2022-12-25T15:47:47.010Z,87.67
2022-12-25T15:50:14.857Z,88.80
2022-12-25T15:52:42.312Z,92.97
2022-12-25T15:55:10.063Z,103.67
2022-12-25T15:57:38.583Z,103.93
2022-12-25T16:00:06.727Z,104.57
2022-12-25T16:02:39.210Z,110.03
2022-12-25T16:05:10.418Z,106.33
2022-12-25T16:07:38.251Z,118.73
2022-12-25T16:10:06.688Z,116.77
2022-12-25T16:12:34.020Z,116.17
2022-12-25T16:15:01.485Z,112.73
2022-12-25T16:17:28.824Z,122.67
2022-12-25T16:19:56.157Z,128.97
2022-12-25T16:22:25.666Z,122.20
2022-12-25T16:24:53.840Z,125.10
2022-12-25T16:27:21.426Z,114.97
2022-12-25T16:29:48.777Z,124.47
2022-12-25T16:32:16.894Z,118.67
2022-12-25T16:34:44.214Z,119.67
2022-12-25T16:37:11.605Z,122.27
2022-12-25T16:39:39.005Z,119.87
2022-12-25T16:42:06.350Z,120.30
2022-12-25T16:44:36.989Z,113.37
2022-12-25T16:47:04.387Z,110.60
2022-12-25T16:49:31.701Z,116.37
2022-12-25T16:51:59.011Z,115.13
2022-12-25T16:54:26.308Z,121.60
2022-12-25T16:56:53.673Z,111.93
2022-12-25T16:59:21.048Z,117.27
2022-12-25T17:01:48.512Z,110.23
2022-12-25T17:04:15.868Z,114.37
2022-12-25T17:06:43.189Z,114.47
2022-12-25T17:09:10.669Z,107.63
2022-12-25T17:11:37.963Z,111.70
2022-12-25T17:14:06.266Z,104.90
2022-12-25T17:16:35.135Z,109.03
2022-12-25T17:19:04.264Z,107.07
2022-12-25T17:21:35.434Z,109.53
2022-12-25T17:24:04.457Z,119.53
2022-12-25T17:26:32.469Z,106.10
2022-12-25T17:28:59.982Z,107.07
2022-12-25T17:31:27.359Z,115.47
2022-12-25T17:33:55.070Z,111.90
2022-12-25T17:36:22.799Z,111.20
2022-12-25T17:38:50.328Z,112.17
2022-12-25T17:41:18.485Z,124.97
2022-12-25T17:43:46.314Z,115.97
2022-12-25T17:46:15.717Z,121.07
2022-12-25T17:48:43.452Z,129.83
2022-12-25T17:51:12.660Z,111.17
2022-12-25T17:53:41.361Z,118.60
2022-12-25T17:56:09.758Z,111.97
2022-12-25T17:58:37.768Z,110.00
2022-12-25T18:01:09.030Z,118.07
2022-12-25T18:03:36.907Z,113.47
2022-12-25T18:06:04.720Z,113.10
2022-12-25T18:08:38.601Z,109.27
2022-12-25T18:11:11.133Z,108.80
2022-12-25T18:13:42.114Z,108.20
2022-12-25T18:16:10.087Z,108.50
2022-12-25T18:18:37.669Z,111.47
2022-12-25T18:21:05.141Z,107.80
2022-12-25T18:23:32.728Z,104.70
2022-12-25T18:26:04.548Z,101.87
2022-12-25T18:28:32.300Z,102.00
2022-12-25T18:30:59.783Z,105.87
2022-12-25T18:33:27.399Z,102.00
2022-12-25T18:35:58.908Z,101.27
2022-12-25T18:38:27.780Z,111.23
2022-12-25T18:40:55.939Z,111.53
2022-12-25T18:43:53.428Z,102.40
2022-12-25T18:46:10.816Z,102.20
2022-12-25T18:48:38.814Z,108.23
2022-12-25T18:51:07.953Z,100.03
2022-12-25T18:53:36.386Z,112.60
2022-12-25T18:56:15.221Z,108.93
2022-12-25T18:58:42.722Z,111.30
2022-12-25T19:01:14.520Z,101.03
2022-12-25T19:03:42.116Z,99.93
2022-12-25T19:06:09.651Z,108.97
2022-12-25T19:08:36.997Z,111.50
2022-12-25T19:11:07.046Z,101.47
2022-12-25T19:13:34.397Z,100.87
2022-12-25T19:16:01.819Z,100.70
2022-12-25T19:18:29.147Z,109.13
2022-12-25T19:20:56.511Z,102.17
2022-12-25T19:23:23.930Z,112.67
2022-12-25T19:25:51.333Z,103.43
2022-12-25T19:28:18.724Z,97.53
2022-12-25T19:30:46.116Z,103.10
2022-12-25T19:33:17.738Z,101.20
2022-12-25T19:35:46.849Z,106.00
2022-12-25T19:38:14.169Z,101.63
2022-12-25T19:41:00.252Z,94.63
2022-12-25T19:43:29.077Z,90.83
2022-12-25T19:45:56.616Z,90.83
2022-12-25T19:48:24.213Z,99.23
2022-12-25T19:50:51.624Z,90.83
2022-12-25T19:53:19.036Z,96.33
2022-12-25T19:55:46.339Z,89.87
2022-12-25T19:58:14.779Z,91.50
2022-12-25T20:00:42.249Z,90.47
2022-12-25T20:03:09.798Z,86.07
2022-12-25T20:05:37.206Z,83.70
2022-12-25T20:08:05.879Z,82.67
2022-12-25T20:10:33.249Z,86.57
2022-12-25T20:13:00.686Z,78.50
2022-12-25T20:15:28.039Z,78.40
2022-12-25T20:17:55.315Z,83.50
2022-12-25T20:20:23.402Z,81.53
2022-12-25T20:22:51.197Z,82.90
2022-12-25T20:25:18.516Z,81.27
2022-12-25T20:27:45.871Z,74.03
2022-12-25T20:30:13.647Z,87.80
2022-12-25T20:32:46.463Z,83.67
2022-12-25T20:39:02.564Z,74.93
2022-12-25T20:41:30.325Z,78.33
2022-12-25T20:43:57.906Z,78.37
2022-12-25T20:46:26.140Z,78.87
2022-12-25T20:48:54.378Z,77.77
2022-12-25T20:51:53.970Z,75.37
2022-12-25T20:54:21.439Z,75.83
2022-12-25T20:56:49.154Z,78.57
2022-12-25T20:59:16.896Z,77.60
2022-12-25T21:01:44.281Z,71.80
2022-12-25T21:04:16.382Z,73.57
2022-12-25T21:06:44.268Z,77.27
2022-12-25T21:09:11.589Z,70.53
2022-12-25T21:11:39.013Z,76.93
2022-12-25T21:14:06.379Z,77.87
2022-12-25T21:16:33.805Z,78.37
2022-12-25T21:19:01.162Z,78.00
2022-12-25T21:21:28.555Z,93.60
2022-12-25T21:23:57.070Z,86.07
2022-12-25T21:26:28.585Z,82.10
2022-12-25T21:28:57.527Z,79.43
2022-12-25T21:31:25.577Z,88.20
2022-12-25T21:33:54.477Z,74.27
2022-12-25T21:36:42.180Z,84.03
2022-12-25T21:39:09.524Z,80.27
2022-12-25T21:41:37.909Z,74.73
2022-12-25T21:44:05.723Z,80.47
2022-12-25T21:46:33.158Z,83.37
2022-12-25T21:49:01.298Z,75.70
2022-12-25T21:51:48.914Z,76.47
2022-12-25T21:54:17.002Z,83.90
2022-12-25T21:56:45.792Z,75.83
2022-12-25T21:59:17.334Z,78.90
2022-12-25T22:01:45.354Z,80.73
2022-12-25T22:04:13.683Z,91.90
2022-12-25T22:06:59.772Z,81.37
2022-12-25T22:09:27.191Z,83.40
2022-12-25T22:12:13.191Z,83.83
2022-12-25T22:14:54.165Z,83.90
2022-12-25T22:17:45.654Z,83.37
2022-12-25T22:20:17.885Z,81.63
2022-12-25T22:22:45.462Z,88.50
2022-12-25T22:25:13.557Z,82.47
2022-12-25T22:27:42.127Z,85.80
2022-12-25T22:30:14.424Z,82.90
2022-12-25T22:32:42.143Z,77.83
2022-12-25T22:35:10.404Z,84.33
2022-12-25T22:37:38.242Z,80.10
2022-12-25T22:40:06.220Z,79.43
2022-12-25T22:42:33.961Z,82.27
2022-12-25T22:45:01.281Z,82.87
2022-12-25T22:47:28.600Z,82.17
2022-12-25T22:49:55.882Z,80.33
2022-12-25T22:52:23.238Z,83.30
2022-12-25T22:54:50.629Z,80.83
2022-12-25T22:57:18.032Z,73.90
2022-12-25T22:59:46.625Z,77.23
2022-12-25T23:02:14.174Z,74.77
2022-12-25T23:04:41.597Z,75.30
2022-12-25T23:07:10.464Z,76.60
2022-12-25T23:09:37.808Z,73.03
2022-12-25T23:12:05.291Z,70.77
2022-12-25T23:14:41.823Z,69.90
2022-12-25T23:17:32.069Z,68.47
2022-12-25T23:20:18.932Z,65.93
2022-12-25T23:23:05.390Z,71.57
2022-12-25T23:25:51.843Z,68.17
2022-12-25T23:28:39.153Z,69.10
2022-12-25T23:31:06.748Z,68.37
2022-12-25T23:33:34.084Z,69.97
2022-12-25T23:36:01.446Z,74.70
2022-12-25T23:38:28.738Z,71.70
2022-12-25T23:40:56.034Z,68.37
2022-12-25T23:43:23.496Z,64.20
2022-12-25T23:45:50.864Z,66.07
2022-12-25T23:48:18.142Z,64.80
2022-12-25T23:50:45.389Z,61.60
2022-12-25T23:53:12.667Z,62.83
2022-12-25T23:55:42.225Z,61.10
2022-12-25T23:58:09.622Z,65.87
